Time;durP1;ratioP1;P1;durP2;ratioP2;P2;SDS_P1;SDS_P2;PMS_P1;PMS_P2;Temp;Humidity;BMP_temperature;BMP_pressure;BME280_temperature;BME280_humidity;BME280_pressure;Samples;Min_cycle;Max_cycle;Signal;HPM_P1;HPM_P2
2022/01/26 00:07:15;;;;;;;50.10;26.63;;;4.20;1.00;4.80;67307.00;;;;5112289;28;20437;-83
2022/01/26 00:09:44;;;;;;;50.23;26.47;;;4.20;1.00;4.80;102009.00;;;;5110426;28;20452;-84
2022/01/26 00:12:14;;;;;;;49.07;27.03;;;4.30;1.00;4.80;101993.00;;;;5109796;28;21020;-83
2022/01/26 00:14:43;;;;;;;51.60;27.03;;;4.30;1.00;4.80;102005.00;;;;5126442;28;20487;-85
2022/01/26 00:17:12;;;;;;;52.23;27.83;;;4.30;1.00;52.70;158711.00;;;;5129097;28;20440;-82
2022/01/26 00:19:50;;;;;;;50.70;24.70;;;4.20;1.00;4.80;102011.00;;;;5133702;28;20528;-84
2022/01/26 00:22:41;;;;;;;47.43;27.53;;;4.20;1.00;4.70;101990.00;;;;5126726;28;20473;-85
2022/01/26 00:25:31;;;;;;;43.83;23.13;;;4.10;1.00;4.70;102000.00;;;;5127762;28;20481;-84
2022/01/26 00:28:19;;;;;;;43.57;23.70;;;4.10;1.00;4.70;67302.00;;;;5128238;28;20442;-84
2022/01/26 00:39:07;;;;;;;40.23;22.17;;;4.20;1.00;217.30;158687.00;;;;5138874;27;20492;-84
2022/01/26 00:41:37;;;;;;;45.57;23.80;;;4.20;1.00;4.70;101993.00;;;;5131381;28;20521;-84
2022/01/26 00:44:08;;;;;;;38.20;22.90;;;4.10;1.00;4.60;101996.00;;;;5133704;28;20465;-82
2022/01/26 00:46:37;;;;;;;44.50;23.47;;;4.30;1.00;4.50;101983.00;;;;5128669;28;20483;-83
2022/01/26 00:49:06;;;;;;;36.30;20.80;;;4.00;1.00;4.50;67250.00;;;;5115350;28;20457;-83
2022/01/26 00:51:34;;;;;;;41.80;23.13;;;4.20;1.00;4.50;101972.00;;;;5114937;28;20532;-81
2022/01/26 00:54:06;;;;;;;41.33;23.33;;;4.00;1.00;4.60;102010.00;;;;5115468;28;20476;-82
2022/01/26 00:56:36;;;;;;;41.67;22.27;;;4.10;1.00;4.60;101991.00;;;;5114165;28;20484;-82
2022/01/26 00:59:04;;;;;;;42.07;22.80;;;4.10;1.00;4.70;101986.00;;;;5113063;28;20837;-82
2022/01/26 01:01:33;;;;;;;42.60;21.60;;;4.10;1.00;4.60;102005.00;;;;5116213;28;20448;-83
2022/01/26 01:04:01;;;;;;;40.40;23.83;;;4.10;1.00;4.70;67292.00;;;;5115636;28;20476;-84
2022/01/26 01:06:36;;;;;;;37.27;21.67;;;4.10;1.00;4.70;102006.00;;;;5124112;27;20472;-84
2022/01/26 01:09:04;;;;;;;41.47;22.07;;;4.20;1.00;4.80;102010.00;;;;5111211;28;20446;-84
2022/01/26 01:11:33;;;;;;;45.30;22.67;;;4.20;1.00;4.70;101981.00;;;;5129641;27;20450;-85
2022/01/26 01:14:02;;;;;;;40.70;24.20;;;4.20;1.00;4.70;101988.00;;;;5115896;28;20945;-85
2022/01/26 01:16:31;;;;;;;42.70;20.70;;;4.20;1.00;4.70;102005.00;;;;5115838;28;20457;-85
2022/01/26 01:19:05;;;;;;;41.80;20.43;;;4.20;1.00;4.70;102004.00;;;;5112674;28;20999;-84
2022/01/26 01:22:17;;;;;;;37.63;20.03;;;4.20;1.00;52.70;158675.00;;;;5115754;28;20459;-85
2022/01/26 01:25:20;;;;;;;37.33;21.83;;;4.20;1.00;4.70;102007.00;;;;5116623;28;20476;-84
2022/01/26 01:27:56;;;;;;;43.23;22.60;;;4.10;1.00;4.60;101990.00;;;;5131790;27;20449;-83
2022/01/26 01:30:32;;;;;;;36.70;19.60;;;4.10;1.00;4.50;67263.00;;;;5115089;28;21600;-85
2022/01/26 01:33:07;;;;;;;36.93;20.03;;;4.00;1.00;217.30;158610.00;;;;5112207;28;20449;-84
2022/01/26 01:35:38;;;;;;;31.13;19.20;;;4.00;1.00;4.50;102008.00;;;;5108802;28;21550;-84
2022/01/26 01:38:11;;;;;;;39.87;21.33;;;4.00;1.00;4.60;102024.00;;;;5114417;28;20548;-85
2022/01/26 01:40:43;;;;;;;32.20;20.33;;;4.00;1.00;4.60;102010.00;;;;5112576;28;20532;-84
2022/01/26 01:43:13;;;;;;;36.23;20.23;;;4.10;1.00;4.60;101991.00;;;;5111232;28;20548;-86
2022/01/26 01:45:47;;;;;;;31.13;18.20;;;4.10;1.00;4.50;102012.00;;;;5112028;28;20454;-84
2022/01/26 01:48:25;;;;;;;37.10;19.70;;;4.00;1.00;4.50;102010.00;;;;5111894;28;20449;-85
2022/01/26 01:50:55;;;;;;;34.93;19.50;;;3.90;1.00;4.50;101997.00;;;;5127750;28;21135;-85
2022/01/26 01:53:31;;;;;;;35.23;20.40;;;3.90;1.00;4.50;102012.00;;;;5114538;28;20455;-83
2022/01/26 01:56:01;;;;;;;31.97;18.00;;;3.90;1.00;4.40;101995.00;;;;5114753;28;20481;-84
2022/01/26 01:58:29;;;;;;;32.70;19.43;;;3.90;1.00;4.40;102010.00;;;;5137164;28;20458;-85
2022/01/26 02:00:59;;;;;;;35.73;19.27;;;3.90;1.00;4.40;102014.00;;;;5139018;28;20476;-85
2022/01/26 02:03:29;;;;;;;38.03;20.87;;;3.90;1.00;4.40;102019.00;;;;5120475;28;20492;-84
2022/01/26 02:05:57;;;;;;;39.20;20.90;;;3.90;1.00;4.40;102012.00;;;;5116015;28;20468;-84
2022/01/26 02:08:26;;;;;;;38.07;20.97;;;3.90;1.00;4.40;101992.00;;;;5132492;28;20525;-86
2022/01/26 02:10:54;;;;;;;37.20;20.83;;;3.90;1.00;4.50;102024.00;;;;5133506;28;20525;-84
2022/01/26 02:13:26;;;;;;;36.33;21.80;;;4.00;1.00;4.50;102024.00;;;;5122822;28;20540;-85
2022/01/26 02:16:03;;;;;;;38.77;21.63;;;4.00;1.00;4.50;102026.00;;;;5124637;28;20560;-84
2022/01/26 02:18:47;;;;;;;38.27;20.20;;;4.00;1.00;4.50;102009.00;;;;5125565;28;20690;-86
2022/01/26 02:21:32;;;;;;;36.97;20.37;;;4.00;1.00;4.60;102033.00;;;;5115779;28;20504;-84
2022/01/26 02:52:00;;;;;;;48.13;24.37;;;3.70;1.00;4.10;67176.00;;;;5115410;28;20455;-84
2022/01/26 02:57:28;;;;;;;43.70;21.00;;;3.70;1.00;4.10;67159.00;;;;5125978;27;20453;-84
2022/01/26 03:02:47;;;;;;;51.53;23.57;;;3.60;1.00;4.00;67140.00;;;;5101341;28;20961;-83
2022/01/26 03:05:18;;;;;;;41.93;21.67;;;3.50;1.00;3.90;101996.00;;;;5110322;28;20471;-84
2022/01/26 03:07:52;;;;;;;49.30;22.97;;;3.40;1.00;3.90;101962.00;;;;5111231;28;20997;-84
2022/01/26 03:10:30;;;;;;;47.50;22.77;;;3.50;1.00;52.70;158318.00;;;;5112841;28;20556;-84
2022/01/26 03:13:04;;;;;;;46.40;22.57;;;3.40;1.00;3.90;101985.00;;;;5125601;27;20452;-85
2022/01/26 03:15:37;;;;;;;46.60;22.77;;;3.40;1.00;217.30;158344.00;;;;5109058;28;20483;-84
2022/01/26 03:21:06;;;;;;;45.23;22.70;;;3.40;1.00;3.90;101981.00;;;;5061792;28;20490;-83
2022/01/26 03:29:15;;;;;;;45.20;22.07;;;3.30;1.00;3.70;101985.00;;;;5111089;28;20479;-83
2022/01/26 03:34:26;;;;;;;43.33;19.23;;;3.20;1.00;3.70;101976.00;;;;5118182;28;20479;-83
2022/01/26 03:36:58;;;;;;;38.33;19.33;;;3.20;1.00;3.70;101950.00;;;;5120606;28;20479;-84
2022/01/26 03:39:28;;;;;;;38.07;20.67;;;3.20;1.00;3.70;101952.00;;;;5129102;28;20460;-84
2022/01/26 03:42:05;;;;;;;35.27;17.07;;;3.40;1.00;3.70;101980.00;;;;5142617;27;20473;-82
2022/01/26 03:44:34;;;;;;;40.43;19.40;;;3.20;1.00;3.70;101987.00;;;;5126051;28;20513;-83
2022/01/26 03:47:03;;;;;;;38.70;21.13;;;3.40;1.00;3.70;101927.00;;;;5105468;28;20836;-83
2022/01/26 03:49:31;;;;;;;46.80;18.90;;;3.20;1.00;3.70;101974.00;;;;5104581;28;20449;-82
2022/01/26 03:52:00;;;;;;;46.37;21.67;;;3.30;1.00;52.70;158298.00;;;;5115672;27;20460;-84
2022/01/26 03:54:28;;;;;;;44.37;20.60;;;3.30;1.00;3.90;101970.00;;;;5109145;28;20473;-84
2022/01/26 03:56:58;;;;;;;34.77;19.00;;;3.40;1.00;3.90;101950.00;;;;5110875;28;20460;-84
2022/01/26 03:59:27;;;;;;;38.17;20.07;;;3.40;1.00;52.70;158328.00;;;;5109784;28;20465;-84
2022/01/26 04:01:56;;;;;;;38.00;18.40;;;3.40;1.00;3.80;101976.00;;;;5110000;28;20479;-84
2022/01/26 04:04:24;;;;;;;35.83;18.20;;;3.30;1.00;3.70;101970.00;;;;5107421;28;20479;-84
2022/01/26 04:06:54;;;;;;;41.40;19.73;;;3.30;1.00;3.70;101966.00;;;;5110950;28;20489;-84
2022/01/26 04:09:22;;;;;;;32.50;16.67;;;3.20;1.00;3.70;101978.00;;;;5124524;28;20435;-84
2022/01/26 04:11:50;;;;;;;31.53;17.47;;;3.20;1.00;3.60;101944.00;;;;5135317;27;20577;-82
2022/01/26 04:14:25;;;;;;;36.43;18.27;;;3.10;1.00;3.60;101946.00;;;;5120314;28;20522;-83
2022/01/26 04:16:56;;;;;;;31.50;17.20;;;3.10;1.00;3.60;67060.00;;;;5112146;28;20813;-83
2022/01/26 04:19:28;;;;;;;38.17;21.17;;;3.10;1.00;3.70;101973.00;;;;5118052;28;20440;-84
2022/01/26 04:22:07;;;;;;;34.87;18.13;;;3.40;1.00;3.70;101957.00;;;;5126147;28;20484;-83
2022/01/26 04:24:39;;;;;;;37.00;17.70;;;3.20;1.00;3.70;101969.00;;;;5129490;28;20473;-83
2022/01/26 04:27:16;;;;;;;35.13;19.57;;;3.20;1.00;3.70;101938.00;;;;5129412;28;20432;-84
2022/01/26 04:29:47;;;;;;;37.00;18.63;;;3.20;1.00;3.80;101974.00;;;;5132452;28;20461;-83
2022/01/26 04:32:16;;;;;;;37.07;18.77;;;3.30;1.00;3.80;101920.00;;;;5135920;28;20465;-84
2022/01/26 04:34:47;;;;;;;40.37;19.07;;;3.30;1.00;3.70;101948.00;;;;5130645;28;20494;-83
2022/01/26 04:37:26;;;;;;;38.20;20.70;;;3.30;1.00;3.80;101961.00;;;;5127583;28;20487;-83
2022/01/26 04:39:59;;;;;;;36.47;19.03;;;3.30;1.00;3.70;101933.00;;;;5133301;27;20449;-83
2022/01/26 04:42:35;;;;;;;40.73;17.10;;;3.20;1.00;3.70;101932.00;;;;5118128;28;20463;-84
2022/01/26 04:45:09;;;;;;;35.37;18.60;;;3.20;1.00;3.60;101927.00;;;;5126865;28;20487;-83
2022/01/26 04:47:38;;;;;;;32.63;17.50;;;3.10;1.00;3.70;101900.00;;;;5133874;27;21032;-84
2022/01/26 04:50:10;;;;;;;34.80;18.13;;;3.10;1.00;3.70;101942.00;;;;5127037;28;20463;-84
2022/01/26 04:52:39;;;;;;;38.70;18.70;;;3.20;1.00;3.70;101914.00;;;;5132563;27;20459;-83
2022/01/26 04:55:09;;;;;;;36.93;19.37;;;3.20;1.00;3.70;101950.00;;;;5108770;28;20508;-83
2022/01/26 04:57:37;;;;;;;36.03;19.47;;;3.10;1.00;3.70;101908.00;;;;5115598;28;20441;-84
2022/01/26 05:00:10;;;;;;;36.83;18.77;;;3.40;1.00;3.70;101926.00;;;;5123414;28;20464;-84
2022/01/26 05:02:38;;;;;;;35.90;19.73;;;3.20;1.00;3.80;101943.00;;;;5114624;28;20487;-83
2022/01/26 05:05:08;;;;;;;35.17;18.47;;;3.30;1.00;3.80;101948.00;;;;5108710;28;20555;-84
2022/01/26 05:07:36;;;;;;;38.27;18.80;;;3.30;1.00;3.80;101941.00;;;;5125238;27;20468;-84
2022/01/26 05:10:06;;;;;;;34.43;19.33;;;3.50;1.00;3.90;101938.00;;;;5100114;28;20946;-84
2022/01/26 05:12:35;;;;;;;31.60;18.10;;;3.40;1.00;3.90;101953.00;;;;5123874;27;20933;-84
2022/01/26 05:15:05;;;;;;;29.90;19.20;;;3.40;1.00;4.00;101943.00;;;;5107298;28;20496;-84
2022/01/26 05:17:36;;;;;;;34.77;19.90;;;3.50;1.00;3.90;101897.00;;;;5110741;28;20456;-84
2022/01/26 05:20:07;;;;;;;38.80;19.97;;;3.50;1.00;3.90;101902.00;;;;5110119;28;20471;-83
2022/01/26 05:22:37;;;;;;;33.50;19.07;;;3.40;1.00;3.90;101940.00;;;;5131983;27;20472;-84
2022/01/26 05:25:05;;;;;;;29.37;16.63;;;3.40;1.00;3.80;101930.00;;;;5106271;28;20754;-83
2022/01/26 05:27:34;;;;;;;32.43;18.60;;;3.40;1.00;3.90;67105.00;;;;5112053;27;20546;-83
2022/01/26 05:30:03;;;;;;;33.40;17.87;;;3.30;1.00;3.90;101929.00;;;;5104375;28;20463;-83
2022/01/26 05:32:32;;;;;;;30.10;18.03;;;3.40;1.00;52.70;158344.00;;;;5103545;28;21564;-83
2022/01/26 05:35:01;;;;;;;27.83;18.50;;;3.40;1.00;3.90;101938.00;;;;5105136;28;20484;-83
2022/01/26 05:37:30;;;;;;;32.53;17.53;;;3.40;1.00;3.90;101882.00;;;;5104033;28;20536;-83
2022/01/26 05:39:58;;;;;;;29.10;15.80;;;3.40;1.00;3.90;101893.00;;;;5104436;28;20476;-83
2022/01/26 05:42:26;;;;;;;32.17;17.80;;;3.40;1.00;3.80;101909.00;;;;5104790;28;20477;-82
2022/01/26 05:45:00;;;;;;;36.97;18.03;;;3.30;1.00;3.90;101894.00;;;;5104405;28;20577;-83
2022/01/26 05:47:31;;;;;;;34.80;17.97;;;3.30;1.00;3.80;101915.00;;;;5106299;28;20448;-83
2022/01/26 05:50:02;;;;;;;34.30;17.70;;;3.30;1.00;3.70;101915.00;;;;5113524;27;20449;-83
2022/01/26 05:52:30;;;;;;;33.80;17.80;;;3.30;1.00;3.70;101903.00;;;;5106394;28;21559;-83
2022/01/26 05:54:59;;;;;;;32.57;18.27;;;3.20;1.00;3.80;101892.00;;;;5106232;28;20507;-84
2022/01/26 05:57:27;;;;;;;35.37;18.37;;;3.40;1.00;3.80;101928.00;;;;5109156;28;20463;-83
2022/01/26 05:59:55;;;;;;;37.20;18.57;;;3.30;1.00;3.90;101831.00;;;;5112570;28;20467;-84
2022/01/26 06:02:24;;;;;;;39.30;19.10;;;3.40;1.00;3.90;101940.00;;;;5115027;28;20480;-84
2022/01/26 06:04:52;;;;;;;33.73;19.83;;;3.40;1.00;3.90;101938.00;;;;5114393;28;20479;-84
2022/01/26 06:07:22;;;;;;;35.90;18.17;;;3.40;1.00;3.90;67115.00;;;;5116471;28;20453;-83
2022/01/26 06:09:50;;;;;;;31.03;17.63;;;3.40;1.00;3.80;101933.00;;;;5118954;28;20518;-83
2022/01/26 06:12:19;;;;;;;37.83;18.20;;;3.30;1.00;3.70;67074.00;;;;5119404;28;20441;-83
2022/01/26 06:15:08;;;;;;;36.30;18.13;;;3.20;1.00;3.80;101929.00;;;;5116936;28;20470;-84
2022/01/26 06:17:36;;;;;;;31.23;18.30;;;3.20;1.00;52.70;158273.00;;;;5118356;28;20453;-83
2022/01/26 06:20:10;;;;;;;31.47;17.67;;;3.20;1.00;3.70;101943.00;;;;5116601;28;20953;-82
2022/01/26 06:22:40;;;;;;;32.77;17.70;;;3.20;1.00;3.70;101948.00;;;;5108771;28;20469;-83
2022/01/26 06:25:10;;;;;;;31.53;18.80;;;3.10;1.00;3.70;101948.00;;;;5108352;28;20664;-82
2022/01/26 06:27:40;;;;;;;26.53;17.87;;;3.20;1.00;3.70;101962.00;;;;5108371;28;20454;-83
2022/01/26 06:30:10;;;;;;;25.80;17.27;;;3.20;1.00;3.80;101953.00;;;;5111231;28;20467;-83
2022/01/26 06:32:38;;;;;;;28.87;15.97;;;3.30;1.00;217.30;158292.00;;;;5107178;28;20457;-84
2022/01/26 06:35:09;;;;;;;29.30;16.80;;;3.20;1.00;3.80;101957.00;;;;5106751;28;20471;-82
2022/01/26 06:37:39;;;;;;;31.40;19.40;;;3.30;1.00;3.80;101955.00;;;;5112791;28;20465;-82
2022/01/26 06:40:09;;;;;;;26.30;17.13;;;3.30;1.00;3.90;67110.00;;;;5107666;28;21069;-82
2022/01/26 06:42:49;;;;;;;29.10;17.73;;;3.30;1.00;52.70;158334.00;;;;5125657;27;21137;-83
2022/01/26 06:45:21;;;;;;;26.10;16.80;;;3.40;1.00;3.90;102001.00;;;;5108402;28;20499;-82
2022/01/26 06:47:58;;;;;;;24.73;16.03;;;3.40;1.00;4.00;101999.00;;;;5113813;28;20457;-83
2022/01/26 06:50:27;;;;;;;29.40;17.10;;;3.60;1.00;4.10;101991.00;;;;5115346;28;20453;-84
2022/01/26 06:52:56;;;;;;;25.97;17.50;;;3.50;1.00;4.10;101997.00;;;;5106931;28;20467;-83
2022/01/26 06:55:25;;;;;;;26.80;17.20;;;3.60;1.00;4.10;102024.00;;;;5099850;28;20850;-83
2022/01/26 06:57:54;;;;;;;23.03;15.30;;;3.60;1.00;4.10;67156.00;;;;5132577;28;20449;-83
2022/01/26 07:00:22;;;;;;;24.07;15.50;;;3.60;1.00;4.20;102019.00;;;;5125805;28;20449;-82
2022/01/26 07:02:52;;;;;;;24.80;15.87;;;3.70;1.00;4.20;102014.00;;;;5145117;28;20545;-82
2022/01/26 07:05:23;;;;;;;26.40;16.93;;;3.70;1.00;4.20;102037.00;;;;5126807;28;20477;-83
2022/01/26 07:07:51;;;;;;;23.07;16.47;;;3.80;1.00;4.30;67199.00;;;;5144575;27;20469;-83
2022/01/26 07:10:21;;;;;;;21.47;15.20;;;3.80;1.00;4.30;102023.00;;;;5115589;28;20454;-83
2022/01/26 07:12:49;;;;;;;23.20;16.60;;;3.90;1.00;4.30;102028.00;;;;5110358;28;20453;-83
2022/01/26 07:23:47;;;;;;;23.73;15.27;;;3.90;1.00;4.30;102005.00;;;;5120198;28;20496;-84
2022/01/26 07:26:17;;;;;;;29.13;15.77;;;3.80;1.00;4.20;102003.00;;;;5119792;28;20472;-83
2022/01/26 07:28:46;;;;;;;27.93;15.87;;;3.70;1.00;4.20;101994.00;;;;5118995;28;20472;-83
2022/01/26 07:31:15;;;;;;;26.70;16.27;;;3.70;1.00;217.30;158493.00;;;;5114272;28;20446;-84
2022/01/26 07:33:44;;;;;;;30.00;17.47;;;3.90;1.00;4.20;101994.00;;;;5110302;27;20585;-84
2022/01/26 07:36:12;;;;;;;24.67;15.33;;;3.70;1.00;4.10;101985.00;;;;5110381;28;20445;-84
2022/01/26 07:38:41;;;;;;;25.80;16.30;;;3.60;1.00;217.30;158408.00;;;;5112478;28;21420;-83
2022/01/26 07:41:09;;;;;;;27.03;17.30;;;3.50;1.00;4.00;67145.00;;;;5141776;27;20532;-84
2022/01/26 07:43:39;;;;;;;27.07;16.63;;;3.50;1.00;4.00;67145.00;;;;5122975;28;20481;-82
2022/01/26 07:46:09;;;;;;;24.20;16.50;;;3.50;1.00;4.10;101973.00;;;;5119755;28;20449;-82
2022/01/26 07:48:38;;;;;;;24.77;16.90;;;3.50;1.00;4.10;101963.00;;;;5124391;28;20442;-84
2022/01/26 07:51:07;;;;;;;23.87;15.13;;;3.50;1.00;4.10;101978.00;;;;5134089;27;20478;-84
2022/01/26 07:53:35;;;;;;;26.00;16.83;;;3.50;1.00;3.90;67129.00;;;;5116245;28;20477;-83
2022/01/26 07:56:04;;;;;;;27.70;18.03;;;3.40;1.00;3.90;101966.00;;;;5127117;28;20529;-85
2022/01/26 07:58:32;;;;;;;25.63;15.80;;;3.40;1.00;217.30;158344.00;;;;5134583;28;20424;-87
2022/01/26 08:01:02;;;;;;;26.97;16.53;;;3.40;1.00;3.90;67118.00;;;;5128581;28;20457;-84
2022/01/26 08:03:33;;;;;;;24.10;16.13;;;3.40;1.00;3.90;101992.00;;;;5128142;28;20479;-84
2022/01/26 08:06:04;;;;;;;22.67;15.90;;;3.40;1.00;217.30;158386.00;;;;5127969;28;20483;-83
2022/01/26 08:08:33;;;;;;;26.77;16.10;;;3.40;1.00;3.90;67129.00;;;;5113465;28;20564;-83
2022/01/26 08:11:01;;;;;;;28.43;17.40;;;3.40;1.00;3.90;101939.00;;;;5112813;28;20454;-84
2022/01/26 08:13:30;;;;;;;24.70;16.73;;;3.50;1.00;4.00;101953.00;;;;5112303;28;20506;-83
2022/01/26 08:15:58;;;;;;;23.97;16.80;;;3.50;1.00;4.10;67156.00;;;;5114770;28;20873;-84
2022/01/26 08:18:28;;;;;;;25.50;17.97;;;3.50;1.00;4.10;67170.00;;;;5118054;28;20469;-84
2022/01/26 08:21:03;;;;;;;24.83;17.20;;;3.60;1.00;217.30;158477.00;;;;5120619;28;20445;-83
2022/01/26 08:23:32;;;;;;;24.27;16.30;;;3.70;1.00;52.70;158499.00;;;;5114031;28;20543;-83
2022/01/26 08:26:01;;;;;;;28.53;18.60;;;3.80;1.00;4.40;101986.00;;;;5112697;28;20449;-83
2022/01/26 08:28:34;;;;;;;23.87;16.87;;;3.80;1.00;217.30;158536.00;;;;5128738;27;20580;-84
2022/01/26 08:31:03;;;;;;;23.07;16.50;;;3.90;1.00;4.40;101957.00;;;;5122587;27;20455;-85
2022/01/26 08:33:33;;;;;;;27.43;18.03;;;3.90;1.00;217.30;158578.00;;;;5125082;28;20459;-84
2022/01/26 08:36:01;;;;;;;24.10;15.90;;;3.90;1.00;4.50;67234.00;;;;5124460;28;20440;-85
2022/01/26 08:38:30;;;;;;;26.63;15.93;;;3.90;1.00;217.30;158540.00;;;;5121842;28;20445;-83
2022/01/26 08:40:58;;;;;;;26.00;16.30;;;3.80;1.00;217.30;158562.00;;;;5122172;28;20441;-82
2022/01/26 08:43:26;;;;;;;24.13;16.00;;;3.80;1.00;4.40;101963.00;;;;5122053;28;20512;-82
2022/01/26 08:45:55;;;;;;;27.50;15.07;;;3.90;1.00;4.40;101974.00;;;;5120526;28;20449;-84
2022/01/26 08:48:25;;;;;;;25.17;16.50;;;3.90;1.00;4.30;67208.00;;;;5133455;27;20476;-83
2022/01/26 08:50:55;;;;;;;24.70;14.43;;;3.80;1.00;4.30;67202.00;;;;5147736;27;20484;-83
2022/01/26 08:53:24;;;;;;;20.73;14.47;;;3.80;1.00;217.30;158489.00;;;;5123450;28;20475;-84
2022/01/26 08:55:52;;;;;;;28.00;18.60;;;3.70;1.00;217.30;158483.00;;;;5144886;27;20519;-84
2022/01/26 08:58:21;;;;;;;22.60;15.97;;;3.70;1.00;217.30;158504.00;;;;5128455;28;20483;-83
2022/01/26 09:00:49;;;;;;;22.57;15.20;;;3.70;1.00;4.30;67208.00;;;;5128208;28;20679;-83
2022/01/26 09:03:19;;;;;;;24.60;14.47;;;3.80;1.00;217.30;158520.00;;;;5128559;28;20469;-84
2022/01/26 09:05:47;;;;;;;26.67;16.37;;;3.80;1.00;4.30;67210.00;;;;5130764;28;20433;-83
2022/01/26 09:08:18;;;;;;;23.93;16.70;;;3.80;1.00;4.30;67203.00;;;;5128817;28;20441;-83
2022/01/26 09:10:46;;;;;;;21.13;15.00;;;3.80;1.00;4.30;101961.00;;;;5132469;28;20468;-83
2022/01/26 09:13:17;;;;;;;22.73;14.07;;;3.80;1.00;4.40;101925.00;;;;5127938;28;21029;-84
2022/01/26 09:15:45;;;;;;;23.00;15.20;;;3.80;1.00;52.70;158556.00;;;;5130732;28;20434;-82
2022/01/26 09:18:18;;;;;;;21.57;14.60;;;3.90;1.00;4.40;101969.00;;;;5134333;28;20445;-83
2022/01/26 09:20:47;;;;;;;24.40;15.30;;;3.90;1.00;217.30;158588.00;;;;5135775;28;20459;-83
2022/01/26 09:23:16;;;;;;;20.30;13.77;;;3.90;1.00;4.50;67258.00;;;;5135906;28;20441;-82
2022/01/26 09:25:45;;;;;;;16.80;11.33;;;4.10;1.00;4.60;102023.00;;;;5134958;28;20496;-83
2022/01/26 09:28:13;;;;;;;8.67;6.80;;;4.10;1.00;4.50;102022.00;;;;5134576;28;20438;-83
2022/01/26 09:30:42;;;;;;;8.63;6.53;;;4.10;1.00;217.30;158624.00;;;;5144574;27;20511;-83
2022/01/26 09:33:10;;;;;;;8.20;6.50;;;4.10;1.00;4.50;67250.00;;;;5131773;27;20457;-84
2022/01/26 09:35:38;;;;;;;9.33;6.47;;;4.10;1.00;4.50;67239.00;;;;5120880;27;20927;-83
2022/01/26 09:38:07;;;;;;;9.63;7.10;;;4.00;1.00;52.70;158598.00;;;;5113529;28;20459;-84
2022/01/26 09:40:37;;;;;;;8.13;6.87;;;4.00;1.00;4.50;102014.00;;;;5116573;28;20457;-83
2022/01/26 09:43:06;;;;;;;8.23;6.33;;;4.00;1.00;4.50;102036.00;;;;5113788;28;20471;-83
2022/01/26 09:45:35;;;;;;;7.00;6.07;;;4.00;1.00;4.50;67234.00;;;;5113817;28;20581;-83
2022/01/26 09:48:06;;;;;;;9.17;6.53;;;4.00;1.00;4.40;102019.00;;;;5114144;28;20457;-81
2022/01/26 09:50:53;;;;;;;7.83;7.03;;;3.90;1.00;217.30;158588.00;;;;5118193;28;20441;-84
2022/01/26 09:53:27;;;;;;;9.70;8.60;;;4.00;1.00;217.30;158614.00;;;;5115351;28;20448;-84
2022/01/26 09:55:58;;;;;;;10.73;7.80;;;4.10;1.00;4.60;67275.00;;;;5118580;28;20437;-84
2022/01/26 09:58:27;;;;;;;8.57;7.10;;;4.30;1.00;4.70;67283.00;;;;5119770;28;20480;-83
2022/01/26 10:00:59;;;;;;;10.07;7.57;;;4.20;1.00;4.70;67300.00;;;;5118806;28;20460;-84
2022/01/26 10:03:32;;;;;;;7.67;6.57;;;4.30;1.00;4.70;102017.00;;;;5120230;28;20459;-83
2022/01/26 10:06:03;;;;;;;10.80;8.20;;;4.30;1.00;4.70;102020.00;;;;5119346;28;20540;-83
2022/01/26 10:17:24;;;;;;;10.43;8.77;;;4.20;1.00;4.80;67311.00;;;;5115892;28;20457;-84
2022/01/26 10:19:58;;;;;;;11.70;8.70;;;4.30;1.00;4.80;102007.00;;;;5112694;28;21058;-84
2022/01/26 10:22:30;;;;;;;10.73;8.77;;;4.30;1.00;4.80;67307.00;;;;5106728;28;20489;-83
2022/01/26 10:25:10;;;;;;;12.80;10.53;;;4.30;1.00;4.80;102007.00;;;;5114446;28;20549;-83
2022/01/26 10:27:59;;;;;;;11.10;9.10;;;4.30;1.00;4.80;67314.00;;;;5111758;28;20465;-84
2022/01/26 10:30:28;;;;;;;13.97;11.20;;;4.40;1.00;4.90;102019.00;;;;5111931;28;20472;-83
2022/01/26 10:32:56;;;;;;;14.77;11.03;;;4.40;1.00;217.30;158780.00;;;;5109166;28;20445;-84
2022/01/26 10:35:25;;;;;;;15.30;11.27;;;4.60;1.00;4.90;67336.00;;;;5117527;28;20603;-83
2022/01/26 10:37:55;;;;;;;17.40;11.67;;;4.70;1.00;4.90;67339.00;;;;5121086;28;20445;-83
2022/01/26 10:40:26;;;;;;;16.43;12.57;;;4.50;1.00;4.90;67343.00;;;;5119191;28;20442;-83
2022/01/26 10:42:59;;;;;;;18.07;12.60;;;4.50;1.00;4.90;102007.00;;;;5125530;28;20449;-84
2022/01/26 10:45:44;;;;;;;23.77;13.47;;;4.50;1.00;4.80;67317.00;;;;5124849;28;20488;-84
2022/01/26 10:48:25;;;;;;;22.83;13.97;;;4.40;1.00;4.70;67307.00;;;;5126671;28;20456;-84
2022/01/26 10:54:12;;;;;;;21.10;14.40;;;4.40;1.00;4.70;67299.00;;;;5117052;28;20479;-83
2022/01/26 10:56:41;;;;;;;22.70;13.53;;;4.20;1.00;4.80;67311.00;;;;5119597;28;20472;-83
2022/01/26 10:59:11;;;;;;;27.83;16.37;;;4.30;1.00;4.80;101954.00;;;;5118781;28;20457;-83
2022/01/26 11:01:39;;;;;;;18.87;14.53;;;4.40;1.00;5.00;101994.00;;;;5117728;28;20460;-83
2022/01/26 11:04:09;;;;;;;16.57;12.23;;;4.50;1.00;5.10;67373.00;;;;5119658;28;20533;-83
2022/01/26 11:06:41;;;;;;;15.80;13.13;;;4.60;1.00;5.20;101993.00;;;;5137823;27;20453;-82
2022/01/26 11:09:12;;;;;;;14.50;12.53;;;4.80;1.00;5.20;102011.00;;;;5124639;27;20457;-83
2022/01/26 11:11:41;;;;;;;18.50;13.60;;;4.70;1.00;5.20;102006.00;;;;5120184;28;20449;-83
2022/01/26 11:14:21;;;;;;;16.43;13.63;;;4.70;1.00;5.10;102011.00;;;;5122934;28;20492;-83
2022/01/26 11:16:56;;;;;;;21.23;15.13;;;4.70;1.00;5.10;102001.00;;;;5113488;28;20457;-84
2022/01/26 11:19:24;;;;;;;19.03;14.10;;;4.70;1.00;5.10;102003.00;;;;5116737;28;20449;-81
2022/01/26 11:21:53;;;;;;;18.53;13.10;;;4.60;1.00;5.00;102005.00;;;;5119228;28;20525;-82
2022/01/26 11:24:45;;;;;;;18.90;14.47;;;4.60;1.00;5.10;102004.00;;;;5122575;28;20472;-84
2022/01/26 11:27:39;;;;;;;17.87;13.60;;;4.60;1.00;5.10;101996.00;;;;5131556;27;20451;-85
2022/01/26 11:31:03;;;;;;;20.47;16.27;;;4.70;1.00;5.20;102007.00;;;;5121012;28;20511;-83
2022/01/26 11:33:35;;;;;;;19.97;15.40;;;4.80;1.00;5.30;101974.00;;;;5125044;28;20459;-84
2022/01/26 11:36:05;;;;;;;19.80;14.40;;;4.90;1.00;5.40;101982.00;;;;5130952;28;20448;-84
2022/01/26 11:39:14;;;;;;;17.90;14.17;;;4.90;1.00;5.40;101977.00;;;;5135200;28;20465;-84
2022/01/26 11:47:22;;;;;;;16.90;13.60;;;4.80;1.00;217.30;158826.00;;;;5130049;28;20445;-82
2022/01/26 11:49:53;;;;;;;19.33;14.70;;;4.60;1.00;217.30;158774.00;;;;5133817;28;20441;-82
2022/01/26 11:52:23;;;;;;;18.00;12.73;;;4.40;1.00;4.90;67328.00;;;;5132811;28;20528;-83
2022/01/26 11:54:55;;;;;;;16.80;14.50;;;4.40;1.00;52.70;158816.00;;;;5131396;27;20469;-85
2022/01/26 11:57:42;;;;;;;20.20;13.70;;;4.80;1.00;217.30;158806.00;;;;5127621;28;20473;-83
2022/01/26 12:00:16;;;;;;;16.40;12.63;;;4.50;1.00;52.70;158806.00;;;;5119451;28;20447;-82
2022/01/26 12:02:56;;;;;;;18.60;12.80;;;4.50;1.00;217.30;158790.00;;;;5122820;28;20458;-83
2022/01/26 12:05:26;;;;;;;15.93;12.80;;;4.50;1.00;5.00;101989.00;;;;5132511;27;20564;-83
2022/01/26 12:07:57;;;;;;;15.07;12.50;;;4.40;1.00;5.00;67357.00;;;;5122185;28;20517;-84
2022/01/26 12:10:30;;;;;;;14.73;12.67;;;4.40;1.00;217.30;158752.00;;;;5130593;28;20464;-82
2022/01/26 12:13:01;;;;;;;17.50;12.63;;;4.40;1.00;217.30;158780.00;;;;5144723;27;20489;-84
2022/01/26 12:15:38;;;;;;;15.10;11.47;;;4.40;1.00;4.90;67343.00;;;;5132193;28;20507;-83
2022/01/26 12:18:22;;;;;;;14.40;11.80;;;4.40;1.00;4.90;67347.00;;;;5131011;28;20476;-83
2022/01/26 12:33:01;;;;;;;17.00;11.37;;;4.50;1.00;5.00;102010.00;;;;5116177;28;20607;-84
2022/01/26 12:35:44;;;;;;;13.83;11.43;;;4.50;1.00;52.70;158816.00;;;;5131786;27;20484;-84
2022/01/26 12:38:22;;;;;;;15.33;10.77;;;4.50;1.00;5.00;102007.00;;;;5119406;27;20441;-84
2022/01/26 12:41:18;;;;;;;16.93;12.40;;;4.50;1.00;5.00;102011.00;;;;5112196;28;20453;-83
2022/01/26 12:43:49;;;;;;;14.03;11.30;;;4.50;1.00;4.90;67353.00;;;;5112109;28;20480;-85
2022/01/26 12:46:21;;;;;;;15.20;11.80;;;4.50;1.00;4.90;102016.00;;;;5113414;28;20561;-83
2022/01/26 12:48:54;;;;;;;14.23;11.10;;;4.40;1.00;4.90;102019.00;;;;5113106;28;20449;-84
2022/01/26 12:51:26;;;;;;;16.00;11.53;;;4.40;1.00;4.90;67344.00;;;;5122586;27;21006;-82
2022/01/26 12:53:56;;;;;;;14.97;11.47;;;4.40;1.00;4.90;67339.00;;;;5108014;28;20481;-84